createdAt,value
2022-11-13T00:04:20.555Z,15.75
2022-11-13T00:09:40.820Z,13.60
2022-11-13T00:15:02.128Z,16.35
2022-11-13T00:20:22.086Z,15.35
2022-11-13T00:25:42.422Z,14.60
2022-11-13T00:31:04.742Z,13.55
2022-11-13T00:36:27.317Z,14.27
2022-11-13T00:41:47.509Z,14.30
2022-11-13T00:47:07.703Z,13.45
2022-11-13T00:52:27.903Z,14.30
2022-11-13T00:57:48.126Z,13.82
2022-11-13T01:03:09.123Z,13.77
2022-11-13T01:08:29.327Z,13.18
2022-11-13T01:13:51.456Z,13.07
2022-11-13T01:19:11.639Z,13.50
2022-11-13T01:24:32.118Z,13.02
2022-11-13T01:29:52.605Z,12.65
2022-11-13T01:35:12.825Z,11.93
2022-11-13T01:40:33.093Z,13.20
2022-11-13T01:45:59.499Z,13.45
2022-11-13T01:51:31.570Z,11.55
2022-11-13T01:56:52.542Z,11.93
2022-11-13T02:02:12.701Z,12.27
2022-11-13T02:07:33.154Z,11.88
2022-11-13T02:12:53.516Z,11.65
2022-11-13T02:18:16.619Z,11.88
2022-11-13T02:24:00.367Z,12.27
2022-11-13T02:29:20.472Z,11.32
2022-11-13T02:34:40.808Z,11.65
2022-11-13T02:40:01.063Z,11.50
2022-11-13T02:45:21.626Z,11.75
2022-11-13T02:50:42.054Z,11.63
2022-11-13T02:56:02.055Z,10.80
2022-11-13T03:01:22.515Z,11.27
2022-11-13T03:06:42.797Z,10.65
2022-11-13T03:12:03.116Z,11.60
2022-11-13T03:17:23.353Z,11.30
2022-11-13T03:22:43.648Z,10.52
2022-11-13T03:28:03.992Z,11.43
2022-11-13T03:33:24.894Z,12.95
2022-11-13T03:38:45.365Z,11.90
2022-11-13T03:44:05.744Z,13.32
2022-11-13T03:49:25.951Z,13.13
2022-11-13T03:54:46.165Z,11.07
2022-11-13T04:00:07.024Z,10.73
2022-11-13T04:05:27.636Z,10.80
2022-11-13T04:10:47.543Z,11.73
2022-11-13T04:16:07.936Z,10.82
2022-11-13T04:21:28.576Z,10.63
2022-11-13T04:26:48.580Z,10.40
2022-11-13T04:32:08.946Z,9.70
2022-11-13T04:37:29.349Z,11.32
2022-11-13T04:42:49.550Z,12.38
2022-11-13T04:48:09.799Z,11.02
2022-11-13T04:53:29.979Z,11.63
2022-11-13T04:58:50.345Z,10.30
2022-11-13T05:04:15.041Z,10.02
2022-11-13T05:09:35.316Z,11.85
2022-11-13T05:14:55.560Z,11.50
2022-11-13T05:20:16.375Z,10.30
2022-11-13T05:25:36.381Z,11.23
2022-11-13T05:31:08.877Z,11.02
2022-11-13T05:36:28.814Z,11.38
2022-11-13T05:41:49.135Z,9.93
2022-11-13T05:47:09.386Z,10.23
2022-11-13T05:52:29.767Z,10.07
2022-11-13T05:57:50.018Z,9.35
2022-11-13T06:03:10.455Z,9.63
2022-11-13T06:08:31.232Z,9.38
2022-11-13T06:13:53.370Z,9.18
2022-11-13T06:19:13.675Z,9.10
2022-11-13T06:24:33.958Z,8.10
2022-11-13T06:29:54.140Z,8.20
2022-11-13T06:35:14.404Z,8.57
2022-11-13T06:40:34.647Z,7.95
2022-11-13T06:45:55.783Z,8.57
2022-11-13T06:51:20.203Z,7.72
2022-11-13T06:56:45.420Z,9.05
2022-11-13T07:02:05.971Z,8.02
2022-11-13T07:07:26.027Z,8.45
2022-11-13T07:12:50.634Z,7.40
2022-11-13T07:18:13.608Z,8.68
2022-11-13T07:23:37.029Z,8.32
2022-11-13T07:28:57.424Z,8.63
2022-11-13T07:34:17.820Z,8.23
2022-11-13T07:39:38.069Z,8.65
2022-11-13T07:44:58.471Z,9.23
2022-11-13T07:50:18.727Z,10.15
2022-11-13T07:55:38.934Z,10.13
2022-11-13T08:01:04.728Z,11.38
2022-11-13T08:06:27.664Z,13.23
2022-11-13T08:11:47.912Z,15.98
2022-11-13T08:17:07.847Z,14.57
2022-11-13T08:22:30.155Z,11.05
2022-11-13T08:27:53.001Z,12.57
2022-11-13T08:33:13.264Z,10.68
2022-11-13T08:38:33.438Z,8.70
2022-11-13T08:43:53.716Z,8.50
2022-11-13T08:49:13.992Z,10.82
2022-11-13T08:54:34.155Z,11.05
2022-11-13T08:59:54.414Z,11.40
2022-11-13T09:05:14.688Z,9.68
2022-11-13T09:10:35.037Z,9.13
2022-11-13T09:15:58.352Z,8.65
2022-11-13T09:21:18.775Z,7.47
2022-11-13T09:26:38.924Z,7.88
2022-11-13T09:31:59.142Z,9.27
2022-11-13T09:37:19.438Z,7.63
2022-11-13T09:42:41.240Z,7.03
2022-11-13T09:48:21.550Z,7.53
2022-11-13T09:53:41.853Z,8.30
2022-11-13T09:59:04.806Z,7.20
2022-11-13T10:04:40.356Z,7.20
2022-11-13T10:10:44.849Z,9.55
2022-11-13T10:16:27.949Z,8.20
2022-11-13T10:22:19.709Z,7.60
2022-11-13T10:27:39.874Z,7.68
2022-11-13T10:33:08.684Z,7.78
2022-11-13T10:38:39.040Z,7.45
2022-11-13T10:44:02.839Z,7.60
2022-11-13T10:49:29.141Z,7.53
2022-11-13T10:54:50.329Z,8.30
2022-11-13T11:00:21.534Z,7.43
2022-11-13T11:05:52.523Z,8.15
2022-11-13T11:11:36.115Z,8.85
2022-11-13T11:16:57.464Z,8.25
2022-11-13T11:22:22.401Z,8.60
2022-11-13T11:28:04.898Z,8.00
2022-11-13T11:33:36.699Z,8.27
2022-11-13T11:39:42.442Z,8.98
2022-11-13T11:45:30.219Z,9.13
2022-11-13T11:51:12.541Z,8.85
2022-11-13T11:56:37.169Z,9.48
2022-11-13T12:02:06.251Z,8.63
2022-11-13T12:07:47.232Z,8.38
2022-11-13T12:13:31.608Z,9.10
2022-11-13T12:19:24.212Z,9.80
2022-11-13T12:25:08.030Z,8.77
2022-11-13T12:30:42.543Z,8.88
2022-11-13T12:36:03.728Z,9.88
2022-11-13T12:41:45.284Z,9.75
2022-11-13T12:47:08.725Z,10.25
2022-11-13T12:52:28.682Z,10.32
2022-11-13T12:57:48.953Z,10.40
2022-11-13T13:03:12.233Z,10.48
2022-11-13T13:08:45.127Z,11.30
2022-11-13T13:14:21.772Z,10.88
2022-11-13T13:19:42.321Z,10.95
2022-11-13T13:25:22.321Z,11.35
2022-11-13T13:30:56.988Z,11.45
2022-11-13T13:36:29.464Z,10.82
2022-11-13T13:42:19.192Z,12.05
2022-11-13T13:47:45.343Z,11.73
2022-11-13T13:53:05.814Z,11.90
2022-11-13T13:58:44.952Z,12.48
2022-11-13T14:04:17.324Z,12.27
2022-11-13T14:09:37.401Z,11.35
2022-11-13T14:14:57.790Z,13.00
2022-11-13T14:20:19.217Z,13.70
2022-11-13T14:25:39.844Z,14.82
2022-11-13T14:31:06.976Z,14.70
2022-11-13T14:36:32.883Z,14.60
2022-11-13T14:41:58.940Z,14.30
2022-11-13T14:47:28.738Z,14.82
2022-11-13T14:53:07.357Z,16.00
2022-11-13T14:58:35.141Z,15.40
2022-11-13T15:03:55.466Z,15.77
2022-11-13T15:09:17.665Z,15.85
2022-11-13T15:14:41.408Z,17.52
2022-11-13T15:20:05.433Z,17.70
2022-11-13T15:25:29.445Z,17.20
2022-11-13T15:30:49.732Z,19.42
2022-11-13T15:36:10.113Z,18.90
2022-11-13T15:41:30.870Z,20.10
2022-11-13T15:46:51.226Z,19.90
2022-11-13T15:52:11.577Z,20.00
2022-11-13T15:57:31.788Z,22.23
2022-11-13T16:02:56.824Z,20.23
2022-11-13T16:08:17.124Z,21.48
2022-11-13T16:13:37.409Z,20.25
2022-11-13T16:19:00.353Z,21.45
2022-11-13T16:24:24.203Z,21.38
2022-11-13T16:29:44.985Z,21.85
2022-11-13T16:35:05.572Z,24.48
2022-11-13T16:40:26.817Z,26.52
2022-11-13T16:45:46.707Z,25.92
2022-11-13T16:51:06.938Z,25.85
2022-11-13T16:56:30.242Z,27.02
2022-11-13T17:01:55.132Z,26.50
2022-11-13T17:07:16.186Z,26.23
2022-11-13T17:12:36.536Z,25.38
2022-11-13T17:17:58.603Z,28.60
2022-11-13T17:23:18.968Z,28.73
2022-11-13T17:28:39.578Z,30.98
2022-11-13T17:33:59.711Z,30.10
2022-11-13T17:39:20.529Z,41.00
2022-11-13T17:44:40.958Z,38.72
2022-11-13T17:50:06.742Z,35.78
2022-11-13T17:55:27.587Z,37.65
2022-11-13T18:00:48.326Z,37.08
2022-11-13T18:06:13.242Z,34.40
2022-11-13T18:11:34.179Z,34.35
2022-11-13T18:16:54.076Z,38.00
2022-11-13T18:22:15.185Z,35.30
2022-11-13T18:27:36.383Z,32.05
2022-11-13T18:32:56.679Z,33.25
2022-11-13T18:38:16.788Z,36.70
2022-11-13T18:43:38.165Z,35.10
2022-11-13T18:48:59.327Z,38.70
2022-11-13T18:54:19.706Z,38.65
2022-11-13T18:59:39.991Z,38.10
2022-11-13T19:05:00.302Z,39.80
2022-11-13T19:10:22.250Z,41.42
2022-11-13T19:15:42.305Z,38.67
2022-11-13T19:21:12.711Z,41.83
2022-11-13T19:26:32.967Z,41.25
2022-11-13T19:31:54.841Z,40.67
2022-11-13T19:37:19.112Z,44.65
2022-11-13T19:42:41.954Z,40.60
2022-11-13T19:48:02.074Z,38.35
2022-11-13T19:53:22.398Z,44.45
2022-11-13T19:58:44.484Z,40.00
2022-11-13T20:04:05.681Z,42.90
2022-11-13T20:09:25.546Z,39.47
2022-11-13T20:14:45.800Z,41.22
2022-11-13T20:20:06.496Z,38.35
2022-11-13T20:25:28.501Z,40.63
2022-11-13T20:30:49.292Z,40.45
2022-11-13T20:36:10.034Z,44.63
2022-11-13T20:41:30.508Z,42.55
2022-11-13T20:46:50.732Z,44.58
2022-11-13T20:52:12.197Z,45.95
2022-11-13T20:57:36.733Z,42.72
2022-11-13T21:03:00.202Z,45.92
2022-11-13T21:08:20.557Z,48.10
2022-11-13T21:13:40.877Z,42.83
2022-11-13T21:19:01.293Z,31.60
2022-11-13T21:24:21.533Z,28.30
2022-11-13T21:29:41.840Z,24.33
2022-11-13T21:35:02.071Z,25.95
2022-11-13T21:40:22.590Z,21.92
2022-11-13T21:45:42.534Z,24.65
2022-11-13T21:51:02.789Z,24.13
2022-11-13T21:56:24.491Z,23.83
2022-11-13T22:01:44.647Z,23.85
2022-11-13T22:07:04.732Z,23.45
2022-11-13T22:12:25.023Z,23.67
2022-11-13T22:17:45.360Z,23.52
2022-11-13T22:23:05.975Z,26.65
2022-11-13T22:28:26.011Z,22.98
2022-11-13T22:33:48.939Z,22.77
2022-11-13T22:39:11.717Z,20.33
2022-11-13T22:44:51.575Z,22.58
2022-11-13T22:50:12.317Z,21.05
2022-11-13T22:55:32.639Z,21.55
2022-11-13T23:00:53.340Z,21.00
2022-11-13T23:06:16.244Z,21.88
2022-11-13T23:11:41.213Z,22.23
2022-11-13T23:17:01.270Z,23.40
2022-11-13T23:22:21.560Z,24.35
2022-11-13T23:27:41.897Z,21.27
2022-11-13T23:33:02.055Z,21.05
2022-11-13T23:38:22.541Z,20.33
2022-11-13T23:49:23.102Z,22.38
2022-11-13T23:54:43.492Z,22.85
